createdAt,value
2018-05-13T00:01:01.072Z,100.00
2018-05-13T00:03:28.549Z,100.00
2018-05-13T00:05:56.024Z,100.00
2018-05-13T00:08:23.524Z,100.00
2018-05-13T00:10:51.083Z,100.00
2018-05-13T00:13:18.505Z,100.00
2018-05-13T00:15:45.974Z,100.00
2018-05-13T00:18:13.475Z,100.00
2018-05-13T00:20:40.953Z,100.00
2018-05-13T00:23:08.419Z,100.00
2018-05-13T00:25:35.915Z,100.00
2018-05-13T00:28:03.379Z,100.00
2018-05-13T00:30:30.864Z,100.00
2018-05-13T00:32:58.346Z,100.00
2018-05-13T00:35:25.828Z,100.00
2018-05-13T00:37:53.311Z,100.00
2018-05-13T00:40:20.791Z,100.00
2018-05-13T00:42:48.255Z,100.00
2018-05-13T00:45:15.723Z,100.00
2018-05-13T00:47:43.214Z,100.00
2018-05-13T00:50:10.680Z,100.00
2018-05-13T00:52:38.173Z,100.00
2018-05-13T00:55:05.648Z,100.00
2018-05-13T00:57:33.134Z,100.00
2018-05-13T01:00:00.593Z,100.00
2018-05-13T01:02:28.148Z,100.00
2018-05-13T01:04:55.572Z,100.00
2018-05-13T01:07:23.049Z,100.00
2018-05-13T01:09:50.532Z,100.00
2018-05-13T01:12:18.004Z,100.00
2018-05-13T01:14:45.483Z,100.00
2018-05-13T01:17:12.951Z,100.00
2018-05-13T01:19:40.799Z,100.00
2018-05-13T01:22:08.271Z,100.00
2018-05-13T01:24:35.769Z,100.00
2018-05-13T01:27:03.240Z,100.00
2018-05-13T01:29:30.800Z,100.00
2018-05-13T01:31:58.304Z,100.00
2018-05-13T01:34:25.768Z,100.00
2018-05-13T01:36:53.336Z,100.00
2018-05-13T01:39:20.808Z,100.00
2018-05-13T01:41:48.319Z,100.00
2018-05-13T01:44:15.784Z,100.00
2018-05-13T01:46:43.280Z,100.00
2018-05-13T01:49:10.746Z,100.00
2018-05-13T01:51:38.216Z,100.00
2018-05-13T01:54:05.712Z,100.00
2018-05-13T01:56:34.186Z,100.00
2018-05-13T01:59:01.675Z,100.00
2018-05-13T02:01:29.153Z,100.00
2018-05-13T02:03:56.637Z,100.00
2018-05-13T02:06:24.096Z,100.00
2018-05-13T02:08:51.563Z,100.00
2018-05-13T02:11:19.055Z,100.00
2018-05-13T02:13:46.516Z,100.00
2018-05-13T02:16:14.000Z,100.00
2018-05-13T02:18:41.477Z,100.00
2018-05-13T02:21:08.976Z,100.00
2018-05-13T02:23:36.455Z,100.00
2018-05-13T02:26:04.220Z,100.00
2018-05-13T02:28:32.618Z,100.00
2018-05-13T02:31:00.123Z,100.00
2018-05-13T02:33:27.744Z,100.00
2018-05-13T02:35:55.219Z,100.00
2018-05-13T02:38:22.708Z,100.00
2018-05-13T02:40:50.172Z,100.00
2018-05-13T02:43:17.664Z,100.00
2018-05-13T02:45:45.141Z,100.00
2018-05-13T02:48:12.617Z,100.00
2018-05-13T02:50:41.091Z,100.00
2018-05-13T02:53:08.565Z,100.00
2018-05-13T02:55:36.056Z,100.00
2018-05-13T02:58:03.528Z,100.00
2018-05-13T03:00:31.017Z,100.00
2018-05-13T03:02:58.485Z,100.00
2018-05-13T03:05:25.956Z,100.00
2018-05-13T03:07:53.451Z,100.00
2018-05-13T03:10:20.919Z,100.00
2018-05-13T03:12:48.414Z,100.00
2018-05-13T03:15:15.894Z,100.00
2018-05-13T03:17:43.391Z,100.00
2018-05-13T03:20:10.860Z,100.00
2018-05-13T03:22:38.337Z,100.00
2018-05-13T03:25:06.084Z,100.00
2018-05-13T03:27:33.556Z,100.00
2018-05-13T03:30:01.045Z,100.00
2018-05-13T03:32:28.516Z,100.00
2018-05-13T03:34:56.236Z,100.00
2018-05-13T03:37:23.740Z,100.00
2018-05-13T03:39:51.223Z,100.00
2018-05-13T03:42:18.719Z,100.00
2018-05-13T03:44:46.201Z,100.00
2018-05-13T03:47:13.689Z,100.00
2018-05-13T03:49:41.169Z,100.00
2018-05-13T03:52:08.639Z,100.00
2018-05-13T03:54:36.124Z,100.00
2018-05-13T03:57:03.601Z,100.00
2018-05-13T03:59:31.089Z,100.00
2018-05-13T04:01:58.568Z,100.00
2018-05-13T04:04:26.041Z,100.00
2018-05-13T04:06:53.524Z,100.00
2018-05-13T04:09:32.797Z,100.00
2018-05-13T04:12:11.895Z,100.00
2018-05-13T04:14:52.055Z,100.00
2018-05-13T04:17:19.525Z,100.00
2018-05-13T04:19:46.996Z,100.00
2018-05-13T04:22:14.488Z,100.00
2018-05-13T04:24:41.955Z,100.00
2018-05-13T04:27:09.451Z,100.00
2018-05-13T04:29:36.920Z,100.00
2018-05-13T04:32:04.420Z,100.00
2018-05-13T04:34:31.886Z,100.00
2018-05-13T04:36:59.352Z,100.00
2018-05-13T04:39:26.831Z,100.00
2018-05-13T04:41:54.460Z,100.00
2018-05-13T04:44:21.949Z,100.00
2018-05-13T04:46:49.415Z,100.00
2018-05-13T04:49:16.911Z,100.00
2018-05-13T04:51:44.388Z,100.00
2018-05-13T04:54:11.863Z,100.00
2018-05-13T04:56:39.353Z,100.00
2018-05-13T04:59:06.821Z,100.00
2018-05-13T05:01:34.311Z,100.00
2018-05-13T05:04:01.787Z,100.00
2018-05-13T05:06:29.274Z,100.00
2018-05-13T05:08:56.798Z,100.00
2018-05-13T05:11:24.326Z,100.00
2018-05-13T05:13:51.757Z,100.00
2018-05-13T05:16:19.246Z,100.00
2018-05-13T05:18:46.716Z,100.00
2018-05-13T05:21:14.191Z,100.00
2018-05-13T05:23:41.673Z,100.00
2018-05-13T05:26:09.148Z,100.00
2018-05-13T05:28:36.641Z,100.00
2018-05-13T05:31:04.109Z,100.00
2018-05-13T05:33:31.596Z,100.00
2018-05-13T05:35:59.069Z,100.00
2018-05-13T05:38:26.540Z,100.00
2018-05-13T05:40:54.020Z,100.00
2018-05-13T05:43:21.492Z,100.00
2018-05-13T05:45:49.215Z,100.00
2018-05-13T05:48:16.693Z,100.00
2018-05-13T05:50:44.204Z,100.00
2018-05-13T05:53:11.669Z,100.00
2018-05-13T05:55:39.142Z,100.00
2018-05-13T05:58:06.635Z,100.00
2018-05-13T06:00:34.108Z,100.00
2018-05-13T06:03:01.589Z,99.54
2018-05-13T06:05:29.066Z,100.00
2018-05-13T06:07:56.561Z,100.00
2018-05-13T06:10:24.034Z,99.13
2018-05-13T06:12:51.520Z,99.51
2018-05-13T06:15:18.995Z,95.18
2018-05-13T06:17:46.465Z,94.48
2018-05-13T06:20:13.962Z,93.79
2018-05-13T06:22:41.442Z,92.83
2018-05-13T06:25:09.434Z,93.66
2018-05-13T06:27:36.826Z,90.90
2018-05-13T06:30:04.382Z,93.47
2018-05-13T06:32:32.135Z,92.79
2018-05-13T06:34:59.641Z,92.64
2018-05-13T06:37:27.103Z,95.04
2018-05-13T06:39:54.577Z,93.28
2018-05-13T06:42:22.059Z,91.77
2018-05-13T06:44:49.522Z,91.04
2018-05-13T06:47:17.011Z,90.12
2018-05-13T06:49:44.484Z,90.84
2018-05-13T06:52:11.987Z,91.62
2018-05-13T06:54:39.551Z,88.89
2018-05-13T06:57:07.008Z,88.06
2018-05-13T06:59:34.489Z,89.15
2018-05-13T07:02:02.045Z,89.96
2018-05-13T07:04:29.614Z,88.46
2018-05-13T07:06:57.232Z,88.19
2018-05-13T07:09:24.950Z,88.24
2018-05-13T07:11:52.428Z,86.70
2018-05-13T07:14:19.942Z,87.21
2018-05-13T07:16:47.412Z,86.75
2018-05-13T07:19:15.688Z,84.33
2018-05-13T07:21:43.541Z,82.62
2018-05-13T07:24:11.000Z,85.10
2018-05-13T07:26:38.487Z,84.91
2018-05-13T07:29:05.948Z,84.33
2018-05-13T07:31:33.434Z,83.97
2018-05-13T07:34:00.893Z,84.95
2018-05-13T07:36:28.368Z,82.33
2018-05-13T07:38:55.855Z,83.56
2018-05-13T07:41:23.349Z,82.38
2018-05-13T07:43:50.898Z,81.10
2018-05-13T07:46:19.117Z,80.37
2018-05-13T07:48:46.577Z,79.73
2018-05-13T07:51:14.048Z,81.82
2018-05-13T07:53:41.516Z,81.74
2018-05-13T07:56:08.995Z,80.50
2018-05-13T07:58:36.463Z,79.84
2018-05-13T08:01:03.937Z,79.56
2018-05-13T08:03:31.432Z,77.84
2018-05-13T08:05:58.899Z,76.31
2018-05-13T08:08:26.559Z,75.63
2018-05-13T08:10:54.030Z,76.23
2018-05-13T08:13:21.505Z,75.19
2018-05-13T08:15:49.011Z,74.67
2018-05-13T08:18:16.476Z,73.83
2018-05-13T08:20:43.959Z,71.99
2018-05-13T08:23:11.423Z,71.86
2018-05-13T08:25:38.909Z,71.64
2018-05-13T08:28:06.383Z,72.01
2018-05-13T08:30:33.851Z,70.99
2018-05-13T08:33:01.677Z,72.02
2018-05-13T08:35:29.173Z,69.33
2018-05-13T08:37:56.672Z,69.45
2018-05-13T08:40:24.823Z,67.59
2018-05-13T08:42:52.316Z,69.47
2018-05-13T08:45:19.774Z,68.74
2018-05-13T08:47:47.260Z,68.09
2018-05-13T08:50:14.739Z,65.33
2018-05-13T08:52:42.228Z,65.26
2018-05-13T08:55:09.711Z,65.51
2018-05-13T08:57:37.175Z,65.71
2018-05-13T09:00:04.663Z,64.71
2018-05-13T09:02:32.151Z,64.09
2018-05-13T09:04:59.606Z,62.77
2018-05-13T09:07:27.188Z,63.43
2018-05-13T09:09:54.651Z,60.48
2018-05-13T09:12:22.156Z,61.78
2018-05-13T09:14:49.619Z,58.70
2018-05-13T09:17:17.082Z,59.61
2018-05-13T09:19:44.555Z,59.28
2018-05-13T09:22:12.020Z,59.78
2018-05-13T09:24:39.503Z,58.54
2018-05-13T09:27:06.966Z,58.24
2018-05-13T09:29:34.423Z,57.90
2018-05-13T09:32:02.077Z,56.83
2018-05-13T09:34:29.536Z,55.91
2018-05-13T09:36:57.027Z,58.01
2018-05-13T09:39:24.503Z,55.29
2018-05-13T09:41:52.084Z,55.68
2018-05-13T09:44:19.556Z,53.76
2018-05-13T09:46:47.012Z,56.02
2018-05-13T09:49:14.504Z,53.28
2018-05-13T09:51:41.959Z,50.59
2018-05-13T09:54:09.404Z,51.11
2018-05-13T09:56:36.888Z,51.45
2018-05-13T09:59:04.365Z,51.93
2018-05-13T10:01:31.858Z,49.83
2018-05-13T10:03:59.412Z,52.21
2018-05-13T10:06:26.809Z,49.80
2018-05-13T10:08:54.281Z,49.60
2018-05-13T10:11:21.744Z,49.86
2018-05-13T10:13:49.236Z,49.61
2018-05-13T10:16:16.715Z,47.88
2018-05-13T10:18:44.167Z,48.55
2018-05-13T10:21:11.675Z,49.72
2018-05-13T10:23:39.572Z,50.75
2018-05-13T10:26:07.052Z,49.90
2018-05-13T10:28:34.515Z,50.54
2018-05-13T10:31:01.985Z,49.07
2018-05-13T10:33:29.471Z,48.71
2018-05-13T10:35:56.953Z,45.53
2018-05-13T10:38:24.425Z,48.39
2018-05-13T10:40:51.875Z,44.72
2018-05-13T10:43:19.342Z,44.19
2018-05-13T10:45:46.830Z,45.95
2018-05-13T10:48:14.289Z,47.04
2018-05-13T10:50:41.764Z,45.45
2018-05-13T10:53:09.225Z,45.08
2018-05-13T10:55:36.679Z,46.24
2018-05-13T10:58:04.145Z,46.95
2018-05-13T11:00:31.600Z,46.81
2018-05-13T11:02:59.063Z,45.17
2018-05-13T11:05:26.571Z,45.74
2018-05-13T11:07:54.039Z,45.30
2018-05-13T11:10:21.614Z,42.64
2018-05-13T11:12:49.042Z,45.43
2018-05-13T11:15:16.506Z,43.63
2018-05-13T11:17:43.978Z,43.92
2018-05-13T11:20:11.473Z,43.58
2018-05-13T11:22:38.944Z,43.68
2018-05-13T11:25:06.412Z,44.95
2018-05-13T11:27:33.880Z,42.63
2018-05-13T11:30:01.361Z,45.33
2018-05-13T11:32:28.821Z,45.58
2018-05-13T11:34:56.300Z,43.49
2018-05-13T11:37:23.759Z,40.48
2018-05-13T11:39:51.276Z,41.50
2018-05-13T11:42:18.722Z,39.50
2018-05-13T11:44:46.182Z,37.55
2018-05-13T11:47:13.671Z,38.46
2018-05-13T11:49:41.137Z,38.41
2018-05-13T11:52:08.640Z,37.12
2018-05-13T11:54:36.110Z,36.53
2018-05-13T11:57:03.567Z,37.33
2018-05-13T11:59:31.042Z,37.25
2018-05-13T12:01:58.503Z,36.02
2018-05-13T12:04:25.980Z,34.83
2018-05-13T12:06:53.435Z,35.29
2018-05-13T12:09:20.887Z,35.81
2018-05-13T12:11:48.358Z,37.53
2018-05-13T12:14:15.820Z,35.78
2018-05-13T12:16:43.293Z,31.95
2018-05-13T12:19:10.759Z,35.23
2018-05-13T12:21:38.220Z,32.44
2018-05-13T12:24:05.695Z,32.69
2018-05-13T12:26:33.151Z,29.45
2018-05-13T12:29:00.712Z,33.89
2018-05-13T12:31:28.111Z,30.13
2018-05-13T12:33:55.601Z,28.64
2018-05-13T12:36:23.087Z,31.92
2018-05-13T12:38:50.545Z,33.45
2018-05-13T12:41:18.181Z,33.12
2018-05-13T12:43:45.636Z,31.16
2018-05-13T12:46:13.096Z,32.70
2018-05-13T12:48:40.585Z,33.87
2018-05-13T12:51:08.053Z,31.92
2018-05-13T12:53:35.522Z,35.24
2018-05-13T12:56:02.976Z,35.09
2018-05-13T12:58:30.538Z,37.76
2018-05-13T13:00:57.947Z,37.40
2018-05-13T13:03:25.400Z,36.23
2018-05-13T13:05:52.879Z,38.87
2018-05-13T13:08:20.351Z,40.50
2018-05-13T13:10:47.826Z,41.07
2018-05-13T13:13:15.301Z,39.77
2018-05-13T13:15:42.751Z,41.80
2018-05-13T13:18:10.237Z,42.57
2018-05-13T13:20:37.697Z,43.00
2018-05-13T13:23:05.163Z,43.24
2018-05-13T13:25:32.645Z,43.50
2018-05-13T13:28:00.125Z,42.82
2018-05-13T13:30:27.715Z,43.98
2018-05-13T13:32:55.073Z,44.89
2018-05-13T13:35:22.544Z,44.16
2018-05-13T13:37:50.021Z,42.92
2018-05-13T13:40:17.481Z,43.77
2018-05-13T13:42:44.954Z,44.30
2018-05-13T13:45:12.419Z,46.15
2018-05-13T13:47:39.884Z,45.45
2018-05-13T13:50:07.369Z,46.98
2018-05-13T13:52:34.827Z,47.11
2018-05-13T13:55:02.327Z,47.49
2018-05-13T13:57:29.808Z,48.52
2018-05-13T13:59:57.271Z,47.64
2018-05-13T14:02:24.760Z,48.42
2018-05-13T14:04:52.227Z,51.21
2018-05-13T14:07:19.697Z,49.41
2018-05-13T14:09:47.148Z,50.75
2018-05-13T14:12:14.620Z,50.31
2018-05-13T14:14:42.083Z,49.83
2018-05-13T14:17:10.130Z,49.39
2018-05-13T14:19:37.609Z,50.26
2018-05-13T14:22:05.064Z,51.30
2018-05-13T14:24:32.541Z,49.19
2018-05-13T14:27:00.020Z,50.26
2018-05-13T14:29:29.611Z,50.08
2018-05-13T14:31:57.086Z,48.53
2018-05-13T14:34:24.541Z,49.18
2018-05-13T14:36:52.015Z,50.16
2018-05-13T14:39:19.498Z,50.40
2018-05-13T14:41:46.992Z,50.45
2018-05-13T14:44:14.552Z,50.21
2018-05-13T14:46:42.032Z,49.74
2018-05-13T14:49:09.523Z,48.92
2018-05-13T14:51:36.995Z,47.84
2018-05-13T14:54:04.476Z,49.21
2018-05-13T14:56:31.933Z,47.27
2018-05-13T14:58:59.384Z,48.76
2018-05-13T15:01:26.874Z,46.67
2018-05-13T15:03:54.356Z,47.30
2018-05-13T15:06:21.834Z,47.57
2018-05-13T15:08:49.301Z,45.65
2018-05-13T15:11:16.778Z,46.41
2018-05-13T15:13:44.337Z,43.51
2018-05-13T15:16:11.797Z,42.80
2018-05-13T15:18:39.288Z,40.94
2018-05-13T15:21:06.749Z,40.53
2018-05-13T15:23:34.221Z,39.94
2018-05-13T15:26:01.706Z,39.68
2018-05-13T15:28:29.180Z,38.04
2018-05-13T15:30:56.690Z,39.93
2018-05-13T15:33:24.161Z,39.24
2018-05-13T15:35:51.611Z,36.97
2018-05-13T15:38:19.081Z,38.84
2018-05-13T15:40:46.544Z,39.24
2018-05-13T15:43:14.168Z,40.34
2018-05-13T15:45:41.636Z,39.49
2018-05-13T15:48:09.109Z,39.29
2018-05-13T15:50:36.605Z,37.77
2018-05-13T15:53:04.553Z,37.81
2018-05-13T15:55:32.029Z,37.97
2018-05-13T15:57:59.495Z,39.78
2018-05-13T16:00:26.964Z,37.81
2018-05-13T16:02:54.445Z,39.21
2018-05-13T16:05:21.996Z,42.26
2018-05-13T16:07:49.479Z,40.66
2018-05-13T16:10:16.934Z,41.26
2018-05-13T16:12:44.416Z,41.67
2018-05-13T16:15:11.888Z,40.21
2018-05-13T16:17:39.340Z,39.33
2018-05-13T16:20:06.843Z,37.22
2018-05-13T16:22:34.295Z,40.62
2018-05-13T16:25:01.781Z,41.96
2018-05-13T16:27:29.242Z,40.50
2018-05-13T16:29:56.728Z,39.81
2018-05-13T16:32:24.237Z,38.26
2018-05-13T16:34:51.709Z,40.83
2018-05-13T16:37:19.224Z,44.94
2018-05-13T16:39:46.711Z,45.27
2018-05-13T16:42:14.168Z,45.65
2018-05-13T16:44:41.653Z,46.45
2018-05-13T16:47:09.119Z,46.61
2018-05-13T16:49:36.814Z,43.95
2018-05-13T16:52:04.277Z,42.40
2018-05-13T16:54:31.753Z,40.26
2018-05-13T16:56:59.506Z,40.28
2018-05-13T16:59:27.370Z,40.77
2018-05-13T17:01:54.864Z,39.06
2018-05-13T17:04:22.332Z,42.92
2018-05-13T17:06:49.795Z,44.05
2018-05-13T17:09:17.365Z,42.68
2018-05-13T17:11:44.753Z,42.01
2018-05-13T17:14:12.696Z,40.25
2018-05-13T17:16:40.155Z,39.01
2018-05-13T17:19:07.867Z,38.83
2018-05-13T17:21:35.352Z,38.13
2018-05-13T17:24:02.911Z,38.20
2018-05-13T17:26:30.884Z,39.74
2018-05-13T17:28:58.516Z,42.91
2018-05-13T17:31:25.971Z,42.75
2018-05-13T17:33:54.185Z,42.14
2018-05-13T17:36:21.638Z,44.09
2018-05-13T17:38:50.287Z,42.88
2018-05-13T17:41:17.858Z,42.73
2018-05-13T17:43:45.325Z,44.13
2018-05-13T17:46:12.797Z,43.86
2018-05-13T17:48:40.507Z,45.84
2018-05-13T17:51:08.620Z,45.34
2018-05-13T17:53:36.190Z,45.08
2018-05-13T17:56:03.656Z,46.57
2018-05-13T17:58:31.954Z,46.88
2018-05-13T18:00:59.445Z,46.20
2018-05-13T18:03:26.939Z,48.57
2018-05-13T18:05:54.399Z,49.92
2018-05-13T18:08:22.192Z,49.90
2018-05-13T18:10:49.664Z,51.17
2018-05-13T18:13:17.708Z,51.55
2018-05-13T18:15:45.760Z,51.99
2018-05-13T18:18:13.736Z,54.28
2018-05-13T18:20:42.588Z,53.38
2018-05-13T18:23:10.061Z,54.18
2018-05-13T18:25:37.541Z,54.49
2018-05-13T18:28:05.009Z,54.43
2018-05-13T18:30:33.090Z,55.14
2018-05-13T18:33:00.555Z,55.81
2018-05-13T18:35:28.024Z,55.48
2018-05-13T18:37:55.491Z,56.05
2018-05-13T18:40:23.522Z,56.49
2018-05-13T18:42:51.008Z,57.03
2018-05-13T18:45:18.468Z,57.65
2018-05-13T18:47:45.941Z,57.99
2018-05-13T18:50:13.741Z,57.59
2018-05-13T18:52:41.209Z,57.90
2018-05-13T18:55:08.939Z,58.55
2018-05-13T18:57:36.403Z,58.15
2018-05-13T19:00:04.157Z,58.94
2018-05-13T19:02:31.731Z,59.77
2018-05-13T19:04:59.191Z,60.72
2018-05-13T19:07:26.675Z,60.28
2018-05-13T19:09:54.865Z,59.73
2018-05-13T19:12:22.358Z,60.07
2018-05-13T19:14:49.817Z,60.41
2018-05-13T19:17:17.278Z,60.62
2018-05-13T19:19:45.067Z,60.51
2018-05-13T19:22:12.520Z,61.08
2018-05-13T19:24:40.056Z,60.57
2018-05-13T19:27:07.488Z,61.32
2018-05-13T19:29:35.320Z,61.79
2018-05-13T19:32:02.940Z,61.40
2018-05-13T19:34:30.407Z,61.71
2018-05-13T19:36:57.869Z,62.03
2018-05-13T19:39:25.950Z,62.25
2018-05-13T19:41:53.415Z,62.43
2018-05-13T19:44:20.900Z,62.38
2018-05-13T19:46:48.368Z,62.84
2018-05-13T19:49:15.823Z,62.59
2018-05-13T19:51:43.937Z,63.45
2018-05-13T19:54:11.774Z,63.02
2018-05-13T19:56:39.465Z,62.72
2018-05-13T19:59:06.924Z,62.28
2018-05-13T20:01:34.387Z,63.18
2018-05-13T20:04:01.877Z,63.13
2018-05-13T20:06:29.359Z,63.52
2018-05-13T20:08:57.094Z,62.94
2018-05-13T20:11:24.568Z,62.97
2018-05-13T20:13:52.033Z,63.37
2018-05-13T20:16:19.509Z,63.48
2018-05-13T20:18:46.967Z,63.45
2018-05-13T20:21:14.492Z,63.77
2018-05-13T20:23:41.935Z,63.43
2018-05-13T20:26:09.392Z,64.58
2018-05-13T20:28:36.876Z,63.67
2018-05-13T20:31:04.343Z,64.24
2018-05-13T20:33:31.819Z,64.07
2018-05-13T20:35:59.372Z,63.85
2018-05-13T20:38:26.760Z,64.17
2018-05-13T20:40:54.235Z,64.10
2018-05-13T20:43:21.693Z,64.38
2018-05-13T20:45:49.170Z,63.95
2018-05-13T20:48:16.624Z,64.07
2018-05-13T20:50:44.150Z,63.73
2018-05-13T20:53:11.630Z,64.02
2018-05-13T20:55:39.150Z,63.97
2018-05-13T20:58:06.869Z,63.97
2018-05-13T21:00:34.327Z,63.82
2018-05-13T21:03:01.836Z,63.76
2018-05-13T21:05:29.299Z,63.52
2018-05-13T21:07:56.761Z,63.30
2018-05-13T21:10:24.259Z,63.81
2018-05-13T21:12:51.907Z,63.83
2018-05-13T21:15:19.407Z,63.15
2018-05-13T21:17:46.859Z,63.60
2018-05-13T21:20:14.334Z,63.55
2018-05-13T21:22:41.824Z,63.92
2018-05-13T21:25:09.397Z,64.31
2018-05-13T21:27:36.880Z,64.04
2018-05-13T21:30:04.418Z,64.25
2018-05-13T21:32:31.900Z,64.21
2018-05-13T21:34:59.375Z,64.78
2018-05-13T21:37:26.833Z,64.62
2018-05-13T21:39:54.614Z,64.58
2018-05-13T21:42:22.071Z,65.47
2018-05-13T21:44:49.540Z,64.92
2018-05-13T21:47:17.018Z,65.11
2018-05-13T21:49:44.471Z,65.26
2018-05-13T21:52:11.981Z,64.94
2018-05-13T21:54:39.478Z,65.19
2018-05-13T21:57:06.918Z,65.65
2018-05-13T21:59:34.405Z,65.95
2018-05-13T22:02:01.866Z,66.39
2018-05-13T22:04:29.356Z,66.54
2018-05-13T22:06:56.830Z,66.47
2018-05-13T22:09:24.287Z,66.49
2018-05-13T22:11:51.903Z,67.19
2018-05-13T22:14:19.365Z,67.45
2018-05-13T22:16:46.840Z,66.73
2018-05-13T22:19:14.292Z,66.88
2018-05-13T22:21:41.752Z,67.04
2018-05-13T22:24:09.228Z,66.98
2018-05-13T22:26:36.700Z,68.26
2018-05-13T22:29:04.196Z,68.21
2018-05-13T22:31:31.659Z,68.57
2018-05-13T22:33:59.120Z,68.65
2018-05-13T22:36:26.655Z,68.23
2018-05-13T22:38:54.344Z,68.44
2018-05-13T22:41:21.832Z,68.08
2018-05-13T22:43:49.287Z,68.89
2018-05-13T22:46:16.756Z,68.99
2018-05-13T22:48:44.235Z,68.44
2018-05-13T22:51:11.700Z,68.41
2018-05-13T22:53:39.170Z,68.74
2018-05-13T22:56:06.641Z,68.50
2018-05-13T22:58:34.128Z,68.62
2018-05-13T23:01:01.591Z,69.31
2018-05-13T23:03:29.048Z,68.70
2018-05-13T23:05:56.544Z,68.87
2018-05-13T23:08:23.999Z,68.07
2018-05-13T23:10:51.476Z,68.75
2018-05-13T23:13:18.932Z,68.26
2018-05-13T23:15:46.397Z,67.46
2018-05-13T23:18:13.872Z,66.96
2018-05-13T23:20:41.337Z,67.16
2018-05-13T23:23:08.813Z,67.18
2018-05-13T23:25:36.264Z,66.59
2018-05-13T23:28:03.744Z,66.90
2018-05-13T23:30:31.304Z,67.13
2018-05-13T23:32:58.752Z,66.49
2018-05-13T23:35:26.232Z,66.34
2018-05-13T23:37:53.690Z,66.03
2018-05-13T23:40:21.171Z,65.74
2018-05-13T23:42:48.623Z,66.06
2018-05-13T23:45:16.076Z,65.94
2018-05-13T23:47:43.554Z,65.75
2018-05-13T23:50:11.013Z,65.95
2018-05-13T23:52:38.484Z,66.16
2018-05-13T23:55:05.936Z,65.97
2018-05-13T23:57:33.597Z,66.02
